Flight Track Log - Related Links

Times and Time Zones

All times are in EDT time to prevent confusion due to time zone crossing. See the EMD21 flight status page for this flight to view local times or setup timezone preferences in your user account.

Time Position Orientation Groundspeed Altitude Reporting Facility
EDT Latitude Longitude Course Direction KTS MPH feet Rate Location/Type
Wed 10:05:28 AM 34.9486 -95.7189 55° Northeast 198 228 4,400  Level Fort Worth Center
Wed 10:06:28 AM 34.9708 -95.6806 55° Northeast 159 183 5,800 1,300 Climbing Fort Worth Center
Wed 10:07:28 AM 34.9994 -95.6419 48° Northeast 136 157 7,000 1,200 Climbing Fort Worth Center
Wed 10:08:28 AM 35.0242 -95.6058 50° Northeast 136 157 8,200 1,200 Climbing Fort Worth Center
Wed 10:09:28 AM 35.0528 -95.5672 48° Northeast 136 157 9,400 1,150 Climbing Fort Worth Center
Wed 10:10:28 AM 35.0811 -95.5208 53° Northeast 147 169 10,500 1,050 Climbing Fort Worth Center
Wed 10:11:28 AM 35.1119 -95.4772 49° Northeast 159 183 11,500 750 Climbing Fort Worth Center
Wed 10:12:28 AM 35.1444 -95.4331 48° Northeast 165 190 12,000 250 Climbing Fort Worth Center
Wed 10:13:28 AM 35.1853 -95.3764 49° Northeast 188 216 12,000  Level Fort Worth Center
Wed 10:14:28 AM 35.2219 -95.3247 49° Northeast 215 247 12,000  Level Fort Worth Center
Wed 10:16:00 AM 35.2725 -95.2473 51° Northeast  Level FlightAware Approximate
Wed 10:23:00 AM 35.4908 -94.8831 49° Northeast  Level FlightAware Approximate
Wed 10:24:00 AM 35.5257 -94.8344 49° Northeast  Level FlightAware Approximate
Wed 10:25:00 AM 35.5605 -94.7857 49° Northeast  Level FlightAware Approximate
Wed 10:26:00 AM 35.5954 -94.7369 49° Northeast  Level FlightAware Approximate
Wed 10:27:00 AM 35.6302 -94.6881 49° Northeast  Level FlightAware Approximate
Wed 10:28:00 AM 35.6650 -94.6393 49° Northeast  Level FlightAware Approximate
Wed 10:29:00 AM 35.6998 -94.5904 49° Northeast  Level FlightAware Approximate
Wed 10:30:00 AM 35.7340 -94.5408 51° Northeast  Level FlightAware Approximate
Wed 10:31:00 AM 35.7675 -94.4905 51° Northeast  Level FlightAware Approximate
Wed 10:32:00 AM 35.8010 -94.4402 51° Northeast  Level FlightAware Approximate
Wed 10:33:00 AM 35.8358 -94.3912 47° Northeast  Level FlightAware Approximate
Wed 10:34:00 AM 35.8667 -94.3410 90° East  Level FlightAware Approximate
Wed 10:35:00 AM 35.9036 -94.3063 47° Northeast  Level FlightAware Approximate
Wed 10:36:00 AM 35.9388 -94.2577 53° Northeast  Level FlightAware Approximate

Login

Don't have an account? Register now (free) for customized features, flight alerts, and more!